createdAt,value
2022-11-22T00:00:25.594Z,4.60
2022-11-22T00:02:52.640Z,4.70
2022-11-22T00:05:19.797Z,4.03
2022-11-22T00:07:46.750Z,4.10
2022-11-22T00:10:14.688Z,4.17
2022-11-22T00:12:41.928Z,3.53
2022-11-22T00:15:09.615Z,3.50
2022-11-22T00:17:37.025Z,2.60
2022-11-22T00:20:05.562Z,3.10
2022-11-22T00:22:32.904Z,2.50
2022-11-22T00:24:59.702Z,3.17
2022-11-22T00:27:26.371Z,3.07
2022-11-22T00:29:53.063Z,3.10
2022-11-22T00:32:19.761Z,2.60
2022-11-22T00:34:46.391Z,2.70
2022-11-22T00:37:13.165Z,2.80
2022-11-22T00:39:39.826Z,3.07
2022-11-22T00:42:06.485Z,2.93
2022-11-22T00:44:33.262Z,3.03
2022-11-22T00:46:59.925Z,3.23
2022-11-22T00:49:26.604Z,3.40
2022-11-22T00:51:53.299Z,3.03
2022-11-22T00:54:19.926Z,3.50
2022-11-22T00:56:46.597Z,3.80
2022-11-22T00:59:13.430Z,2.70
2022-11-22T01:01:40.113Z,3.60
2022-11-22T01:04:07.039Z,3.33
2022-11-22T01:06:33.709Z,3.33
2022-11-22T01:09:00.375Z,3.40
2022-11-22T01:11:27.136Z,2.70
2022-11-22T01:13:53.789Z,3.10
2022-11-22T01:16:20.469Z,3.00
2022-11-22T01:18:47.137Z,2.93
2022-11-22T01:21:13.925Z,3.53
2022-11-22T01:23:40.790Z,3.43
2022-11-22T01:26:09.040Z,2.63
2022-11-22T01:28:36.758Z,2.90
2022-11-22T01:31:04.875Z,2.87
2022-11-22T01:33:31.783Z,3.73
2022-11-22T01:35:58.578Z,4.17
2022-11-22T01:38:26.022Z,3.40
2022-11-22T01:40:53.614Z,3.10
2022-11-22T01:43:28.616Z,3.60
2022-11-22T01:45:57.649Z,4.00
2022-11-22T01:48:53.436Z,4.30
2022-11-22T01:51:23.146Z,4.27
2022-11-22T01:53:49.985Z,4.57
2022-11-22T01:56:18.448Z,4.77
2022-11-22T01:58:51.530Z,3.77
2022-11-22T02:01:18.948Z,3.50
2022-11-22T02:03:48.963Z,3.40
2022-11-22T02:06:16.163Z,3.90
2022-11-22T02:08:53.930Z,4.07
2022-11-22T02:11:21.346Z,3.77
2022-11-22T02:13:51.229Z,3.67
2022-11-22T02:16:18.341Z,3.67
2022-11-22T02:18:45.007Z,4.50
2022-11-22T02:21:11.797Z,3.27
2022-11-22T02:23:55.440Z,3.23
2022-11-22T02:26:26.947Z,4.07
2022-11-22T02:28:56.546Z,3.50
2022-11-22T02:31:44.386Z,3.83
2022-11-22T02:34:12.248Z,3.30
2022-11-22T02:36:43.779Z,3.50
2022-11-22T02:39:13.111Z,3.30
2022-11-22T02:41:40.160Z,3.27
2022-11-22T02:44:09.457Z,5.07
2022-11-22T02:46:36.298Z,3.23
2022-11-22T02:49:02.968Z,3.70
2022-11-22T02:51:29.671Z,4.17
2022-11-22T02:53:56.846Z,3.47
2022-11-22T02:56:23.665Z,4.07
2022-11-22T02:58:50.440Z,3.53
2022-11-22T03:01:17.136Z,3.10
2022-11-22T03:03:43.797Z,3.70
2022-11-22T03:06:10.416Z,3.63
2022-11-22T03:08:37.090Z,4.90
2022-11-22T03:11:03.718Z,3.47
2022-11-22T03:13:30.396Z,4.27
2022-11-22T03:15:57.041Z,3.60
2022-11-22T03:18:23.691Z,3.77
2022-11-22T03:20:50.603Z,3.30
2022-11-22T03:23:17.352Z,3.80
2022-11-22T03:25:44.212Z,4.33
2022-11-22T03:28:10.863Z,3.90
2022-11-22T03:30:41.620Z,3.40
2022-11-22T03:33:08.393Z,3.13
2022-11-22T03:35:35.193Z,3.67
2022-11-22T03:38:01.918Z,3.50
2022-11-22T03:40:28.543Z,3.37
2022-11-22T03:42:55.212Z,4.00
2022-11-22T03:45:21.856Z,3.50
2022-11-22T03:47:48.482Z,3.57
2022-11-22T03:50:15.803Z,3.27
2022-11-22T03:52:42.411Z,3.50
2022-11-22T03:55:09.243Z,3.73
2022-11-22T03:57:35.888Z,3.67
2022-11-22T04:00:03.073Z,4.30
2022-11-22T04:02:29.725Z,3.53
2022-11-22T04:04:56.913Z,3.10
2022-11-22T04:07:23.621Z,3.53
2022-11-22T04:09:50.291Z,3.50
2022-11-22T04:12:16.942Z,4.30
2022-11-22T04:15:02.409Z,3.50
2022-11-22T04:17:40.996Z,4.10
2022-11-22T04:20:38.563Z,3.47
2022-11-22T04:23:08.524Z,5.17
2022-11-22T04:25:36.967Z,4.10
2022-11-22T04:28:04.891Z,3.50
2022-11-22T04:30:50.251Z,4.30
2022-11-22T04:33:17.314Z,3.80
2022-11-22T04:35:44.582Z,3.23
2022-11-22T04:38:12.425Z,3.37
2022-11-22T04:40:39.709Z,3.10
2022-11-22T04:43:25.947Z,3.37
2022-11-22T04:45:52.878Z,3.80
2022-11-22T04:48:19.750Z,3.40
2022-11-22T04:51:05.230Z,3.00
2022-11-22T04:53:31.991Z,3.10
2022-11-22T04:55:59.056Z,4.30
2022-11-22T04:58:25.777Z,3.80
2022-11-22T05:00:52.733Z,4.10
2022-11-22T05:03:20.011Z,2.83
2022-11-22T05:05:46.884Z,3.60
2022-11-22T05:08:13.763Z,3.60
2022-11-22T05:10:59.828Z,3.53
2022-11-22T05:13:37.974Z,3.40
2022-11-22T05:16:06.968Z,4.87
2022-11-22T05:18:34.111Z,3.83
2022-11-22T05:21:05.728Z,4.03
2022-11-22T05:23:51.001Z,3.20
2022-11-22T05:26:18.014Z,3.53
2022-11-22T05:28:44.868Z,3.83
2022-11-22T05:31:14.205Z,3.70
2022-11-22T05:33:42.881Z,3.37
2022-11-22T05:36:10.839Z,3.40
2022-11-22T05:38:38.579Z,4.07
2022-11-22T05:41:07.460Z,3.70
2022-11-22T05:43:34.617Z,3.43
2022-11-22T05:46:08.927Z,4.20
2022-11-22T05:48:36.984Z,3.60
2022-11-22T05:51:08.257Z,3.30
2022-11-22T05:53:36.649Z,3.20
2022-11-22T05:56:07.897Z,3.50
2022-11-22T05:58:35.444Z,3.57
2022-11-22T06:01:07.369Z,3.47
2022-11-22T06:03:35.110Z,3.40
2022-11-22T06:06:02.341Z,3.80
2022-11-22T06:08:33.627Z,3.60
2022-11-22T06:11:08.304Z,3.23
2022-11-22T06:13:40.104Z,3.50
2022-11-22T06:16:08.475Z,3.20
2022-11-22T06:18:35.861Z,4.63
2022-11-22T06:21:05.997Z,4.50
2022-11-22T06:23:33.232Z,3.63
2022-11-22T06:26:09.086Z,3.63
2022-11-22T06:28:37.144Z,3.17
2022-11-22T06:31:13.265Z,2.90
2022-11-22T06:33:41.651Z,2.37
2022-11-22T06:36:12.979Z,2.97
2022-11-22T06:38:41.021Z,3.17
2022-11-22T06:41:10.255Z,2.90
2022-11-22T06:43:42.378Z,3.67
2022-11-22T06:46:12.697Z,2.87
2022-11-22T06:48:40.591Z,3.73
2022-11-22T06:51:22.377Z,2.90
2022-11-22T06:53:50.821Z,3.53
2022-11-22T06:56:23.526Z,2.83
2022-11-22T06:58:51.748Z,3.27
2022-11-22T07:01:24.128Z,3.20
2022-11-22T07:03:51.880Z,3.30
2022-11-22T07:06:19.640Z,3.60
2022-11-22T07:08:46.733Z,3.53
2022-11-22T07:11:16.860Z,3.47
2022-11-22T07:13:44.707Z,3.37
2022-11-22T07:16:13.657Z,3.50
2022-11-22T07:18:41.171Z,4.40
2022-11-22T07:21:13.465Z,3.90
2022-11-22T07:23:44.828Z,3.33
2022-11-22T07:26:12.943Z,4.37
2022-11-22T07:28:40.028Z,4.53
2022-11-22T07:31:08.782Z,3.70
2022-11-22T07:33:35.510Z,4.40
2022-11-22T07:36:11.020Z,3.73
2022-11-22T07:38:38.123Z,3.67
2022-11-22T07:41:05.865Z,3.20
2022-11-22T07:43:32.935Z,3.83
2022-11-22T07:46:00.977Z,4.83
2022-11-22T07:48:27.691Z,3.70
2022-11-22T07:50:54.415Z,4.30
2022-11-22T07:53:21.299Z,4.60
2022-11-22T07:55:48.180Z,4.53
2022-11-22T07:58:14.875Z,4.23
2022-11-22T08:00:41.527Z,4.60
2022-11-22T08:03:08.769Z,4.37
2022-11-22T08:05:35.510Z,5.37
2022-11-22T08:08:02.231Z,4.93
2022-11-22T08:10:29.067Z,4.13
2022-11-22T08:13:00.099Z,5.07
2022-11-22T08:15:27.193Z,4.07
2022-11-22T08:17:53.981Z,4.30
2022-11-22T08:20:20.685Z,3.43
2022-11-22T08:22:47.319Z,4.90
2022-11-22T08:25:14.077Z,5.80
2022-11-22T08:27:42.541Z,5.27
2022-11-22T08:30:11.000Z,6.60
2022-11-22T08:32:37.718Z,6.00
2022-11-22T08:35:04.724Z,6.07
2022-11-22T08:37:31.477Z,7.50
2022-11-22T08:39:58.134Z,10.70
2022-11-22T08:42:24.854Z,14.17
2022-11-22T08:44:51.538Z,20.13
2022-11-22T08:47:18.286Z,19.40
2022-11-22T08:49:44.953Z,16.87
2022-11-22T08:52:11.720Z,19.00
2022-11-22T08:54:38.498Z,17.57
2022-11-22T08:57:05.193Z,14.10
2022-11-22T08:59:32.181Z,16.07
2022-11-22T09:01:59.220Z,15.17
2022-11-22T09:04:26.238Z,20.00
2022-11-22T09:09:39.566Z,8.07
2022-11-22T09:12:06.695Z,9.60
2022-11-22T09:14:33.356Z,10.77
2022-11-22T09:17:00.233Z,9.47
2022-11-22T09:19:26.997Z,9.57
2022-11-22T09:21:53.713Z,7.73
2022-11-22T09:24:20.520Z,9.10
2022-11-22T09:26:47.323Z,7.37
2022-11-22T09:29:15.607Z,5.03
2022-11-22T09:31:42.558Z,4.30
2022-11-22T09:34:09.277Z,3.63
2022-11-22T09:36:36.290Z,5.20
2022-11-22T09:39:03.068Z,4.50
2022-11-22T09:41:55.248Z,3.77
2022-11-22T09:44:59.211Z,5.37
2022-11-22T09:47:53.069Z,3.80
2022-11-22T09:50:35.204Z,3.90
2022-11-22T09:53:11.935Z,2.90
2022-11-22T09:55:47.039Z,3.10
2022-11-22T09:58:54.939Z,3.43
2022-11-22T10:01:27.591Z,2.93
2022-11-22T10:04:17.526Z,2.60
2022-11-22T10:06:52.822Z,2.83
2022-11-22T10:09:31.902Z,3.23
2022-11-22T10:12:28.138Z,2.80
2022-11-22T10:15:04.582Z,2.90
2022-11-22T10:17:51.489Z,2.40
2022-11-22T10:20:19.761Z,2.97
2022-11-22T10:22:48.078Z,2.13
2022-11-22T10:25:43.840Z,2.10
2022-11-22T10:28:29.614Z,2.13
2022-11-22T10:31:03.476Z,2.53
2022-11-22T10:33:44.684Z,1.60
2022-11-22T10:36:32.754Z,2.03
2022-11-22T10:39:37.792Z,2.10
2022-11-22T10:42:23.539Z,1.50
2022-11-22T10:44:50.184Z,2.03
2022-11-22T10:47:44.377Z,1.50
2022-11-22T10:50:20.893Z,1.43
2022-11-22T10:52:50.279Z,1.63
2022-11-22T10:55:26.125Z,2.73
2022-11-22T10:57:58.686Z,2.07
2022-11-22T11:00:27.992Z,1.50
2022-11-22T11:03:34.037Z,1.80
2022-11-22T11:11:45.947Z,1.93
2022-11-22T11:14:39.822Z,2.73
2022-11-22T11:17:07.056Z,2.00
2022-11-22T11:19:43.133Z,2.33
2022-11-22T11:22:18.577Z,2.17
2022-11-22T11:24:50.020Z,2.43
2022-11-22T11:27:19.366Z,2.20
2022-11-22T11:30:03.661Z,1.80
2022-11-22T11:32:51.616Z,2.13
2022-11-22T11:35:21.715Z,1.70
2022-11-22T11:37:48.430Z,2.43
2022-11-22T11:40:30.652Z,1.97
2022-11-22T11:43:19.616Z,2.20
2022-11-22T11:45:46.754Z,1.50
2022-11-22T11:48:38.290Z,1.90
2022-11-22T11:51:21.703Z,2.20
2022-11-22T11:53:56.339Z,2.37
2022-11-22T11:56:39.825Z,1.90
2022-11-22T11:59:38.594Z,1.67
2022-11-22T12:02:13.499Z,2.10
2022-11-22T12:05:06.678Z,3.40
2022-11-22T12:07:36.431Z,3.10
2022-11-22T12:10:32.267Z,1.97
2022-11-22T12:13:17.839Z,2.30
2022-11-22T12:15:55.786Z,2.13
2022-11-22T12:18:42.126Z,1.70
2022-11-22T12:21:33.253Z,2.20
2022-11-22T12:27:13.294Z,2.70
2022-11-22T12:29:41.992Z,2.03
2022-11-22T12:32:23.481Z,1.87
2022-11-22T12:34:55.809Z,2.00
2022-11-22T12:37:52.177Z,2.30
2022-11-22T12:40:45.401Z,2.40
2022-11-22T12:43:50.993Z,2.13
2022-11-22T12:46:26.047Z,1.93
2022-11-22T12:48:55.878Z,2.20
2022-11-22T12:51:44.976Z,1.70
2022-11-22T12:54:17.178Z,1.83
2022-11-22T12:56:55.567Z,2.00
2022-11-22T12:59:31.112Z,2.77
2022-11-22T13:02:41.036Z,2.87
2022-11-22T13:05:17.080Z,2.13
2022-11-22T13:07:55.678Z,1.80
2022-11-22T13:10:31.688Z,1.93
2022-11-22T13:13:01.977Z,2.10
2022-11-22T13:15:34.598Z,1.77
2022-11-22T13:18:01.402Z,1.73
2022-11-22T13:20:43.026Z,1.77
2022-11-22T13:23:44.382Z,1.53
2022-11-22T13:26:26.464Z,1.80
2022-11-22T13:28:53.737Z,1.67
2022-11-22T13:31:20.653Z,1.93
2022-11-22T13:33:56.665Z,3.10
2022-11-22T13:36:35.375Z,2.20
2022-11-22T13:39:12.215Z,1.87
2022-11-22T13:41:56.775Z,2.20
2022-11-22T13:44:23.514Z,2.40
2022-11-22T13:46:50.192Z,2.60
2022-11-22T13:49:35.251Z,2.70
2022-11-22T13:52:26.377Z,1.93
2022-11-22T13:54:53.161Z,2.17
2022-11-22T13:57:34.716Z,2.30
2022-11-22T14:00:13.833Z,1.83
2022-11-22T14:02:48.667Z,2.40
2022-11-22T14:05:29.359Z,1.70
2022-11-22T14:08:01.363Z,2.03
2022-11-22T14:10:59.488Z,2.90
2022-11-22T14:13:48.485Z,1.60
2022-11-22T14:16:20.885Z,5.47
2022-11-22T14:18:53.278Z,4.27
2022-11-22T14:21:49.718Z,3.60
2022-11-22T14:24:31.787Z,1.93
2022-11-22T14:27:08.241Z,1.83
2022-11-22T14:30:05.613Z,2.17
2022-11-22T14:33:04.336Z,2.83
2022-11-22T14:35:36.696Z,1.87
2022-11-22T14:38:22.089Z,1.83
2022-11-22T14:40:48.901Z,1.80
2022-11-22T14:43:37.769Z,1.70
2022-11-22T14:46:37.410Z,1.77
2022-11-22T14:49:19.849Z,2.60
2022-11-22T14:51:53.119Z,1.90
2022-11-22T14:54:22.171Z,2.03
2022-11-22T14:56:49.724Z,2.23
2022-11-22T14:59:19.801Z,1.50
2022-11-22T15:02:04.917Z,1.90
2022-11-22T15:09:10.827Z,1.70
2022-11-22T15:09:13.689Z,2.23
2022-11-22T15:11:27.196Z,2.20
2022-11-22T15:14:29.065Z,1.83
2022-11-22T15:59:16.942Z,4.70
2022-11-22T16:01:45.017Z,5.20
2022-11-22T16:04:33.769Z,4.60
2022-11-22T16:07:07.180Z,3.77
2022-11-22T16:09:36.286Z,3.27
2022-11-22T16:12:24.640Z,2.57
2022-11-22T16:14:51.600Z,2.73
2022-11-22T16:17:27.207Z,2.00
2022-11-22T16:20:14.661Z,2.40
2022-11-22T16:22:41.334Z,2.43
2022-11-22T16:25:29.547Z,2.40
2022-11-22T16:27:56.435Z,2.13
2022-11-22T16:30:23.881Z,2.67
2022-11-22T16:32:53.796Z,2.10
2022-11-22T16:35:33.769Z,1.90
2022-11-22T16:38:00.421Z,2.20
2022-11-22T16:40:27.150Z,2.00
2022-11-22T16:42:53.817Z,2.07
2022-11-22T16:45:22.063Z,1.57
2022-11-22T16:47:58.497Z,1.47
2022-11-22T16:50:39.026Z,1.23
2022-11-22T16:53:11.620Z,1.60
2022-11-22T16:55:38.464Z,1.30
2022-11-22T16:58:22.617Z,2.80
2022-11-22T17:00:50.749Z,2.07
2022-11-22T17:03:23.159Z,1.30
2022-11-22T17:05:49.853Z,1.77
2022-11-22T17:08:19.356Z,1.70
2022-11-22T17:10:52.052Z,1.90
2022-11-22T17:13:25.485Z,1.60
2022-11-22T17:15:56.662Z,1.57
2022-11-22T17:18:23.344Z,1.37
2022-11-22T17:20:50.208Z,1.90
2022-11-22T17:23:28.077Z,1.70
2022-11-22T17:25:54.846Z,1.60
2022-11-22T17:28:21.553Z,1.73
2022-11-22T17:30:48.239Z,1.83
2022-11-22T17:33:14.882Z,1.20
2022-11-22T17:35:41.727Z,1.40
2022-11-22T17:38:11.252Z,1.10
2022-11-22T17:40:38.392Z,1.87
2022-11-22T17:43:05.092Z,1.47
2022-11-22T17:45:31.812Z,1.60
2022-11-22T17:47:58.577Z,1.43
2022-11-22T17:50:25.248Z,1.90
2022-11-22T17:52:52.753Z,2.30
2022-11-22T17:55:19.549Z,1.00
2022-11-22T17:57:46.217Z,1.77
2022-11-22T18:00:13.236Z,1.80
2022-11-22T18:02:40.906Z,1.20
2022-11-22T18:05:09.672Z,1.43
2022-11-22T18:07:39.035Z,1.80
2022-11-22T18:10:09.910Z,1.60
2022-11-22T18:12:42.402Z,1.40
2022-11-22T18:15:13.715Z,2.30
2022-11-22T18:17:40.583Z,2.20
2022-11-22T18:20:07.908Z,1.57
2022-11-22T18:22:34.570Z,1.43
2022-11-22T18:25:04.516Z,4.13
2022-11-22T18:27:38.977Z,2.13
2022-11-22T18:30:09.321Z,1.33
2022-11-22T18:32:36.045Z,1.33
2022-11-22T18:35:02.731Z,1.37
2022-11-22T18:37:29.399Z,1.30
2022-11-22T18:39:56.224Z,1.13
2022-11-22T18:42:23.493Z,1.30
2022-11-22T18:44:50.196Z,2.30
2022-11-22T18:47:17.049Z,1.67
2022-11-22T18:49:43.757Z,1.93
2022-11-22T18:52:13.378Z,2.30
2022-11-22T18:54:43.279Z,1.33
2022-11-22T18:57:10.025Z,2.83
2022-11-22T18:59:36.695Z,5.03
2022-11-22T19:02:03.351Z,3.60
2022-11-22T19:04:30.217Z,5.07
2022-11-22T19:06:57.244Z,4.00
2022-11-22T19:09:23.900Z,5.47
2022-11-22T19:11:55.582Z,11.60
2022-11-22T19:14:24.850Z,4.70
2022-11-22T19:16:51.706Z,1.60
2022-11-22T19:19:18.353Z,6.43
2022-11-22T19:21:45.042Z,3.07
2022-11-22T19:24:11.805Z,6.40
2022-11-22T19:26:38.557Z,3.13
2022-11-22T19:29:05.281Z,2.30
2022-11-22T19:31:32.242Z,1.87
2022-11-22T19:33:59.580Z,1.40
2022-11-22T19:36:32.755Z,1.23
2022-11-22T19:39:00.634Z,2.53
2022-11-22T19:41:27.306Z,1.87
2022-11-22T19:43:56.195Z,1.73
2022-11-22T19:46:23.517Z,1.37
2022-11-22T19:48:51.933Z,1.77
2022-11-22T19:51:18.873Z,2.23
2022-11-22T19:53:45.580Z,1.97
2022-11-22T19:56:17.601Z,1.97
2022-11-22T19:58:49.979Z,1.53
2022-11-22T20:01:17.489Z,1.50
2022-11-22T20:03:45.227Z,1.53
2022-11-22T20:06:13.616Z,1.63
2022-11-22T20:08:40.904Z,1.40
2022-11-22T20:11:10.974Z,1.70
2022-11-22T20:13:42.625Z,1.47
2022-11-22T20:16:22.041Z,1.20
2022-11-22T20:18:52.940Z,1.10
2022-11-22T20:21:22.247Z,1.57
2022-11-22T20:23:50.332Z,1.30
2022-11-22T20:26:17.642Z,1.30
2022-11-22T20:28:45.620Z,1.23
2022-11-22T20:31:20.136Z,1.40
2022-11-22T20:33:48.432Z,1.27
2022-11-22T20:36:24.138Z,1.10
2022-11-22T20:38:51.852Z,1.87
2022-11-22T20:41:20.623Z,1.30
2022-11-22T20:43:49.331Z,1.70
2022-11-22T20:46:18.888Z,2.70
2022-11-22T20:48:47.047Z,1.50
2022-11-22T20:51:16.764Z,1.20
2022-11-22T20:53:43.493Z,1.17
2022-11-22T20:56:12.028Z,1.13
2022-11-22T20:58:39.130Z,2.20
2022-11-22T21:01:27.641Z,2.17
2022-11-22T21:03:55.112Z,4.07
2022-11-22T21:06:24.275Z,7.80
2022-11-22T21:08:51.243Z,3.87
2022-11-22T21:11:21.096Z,5.13
2022-11-22T21:13:48.715Z,5.83
2022-11-22T21:16:27.240Z,3.80
2022-11-22T21:18:56.317Z,3.03
2022-11-22T21:21:24.537Z,3.53
2022-11-22T21:23:53.502Z,2.77
2022-11-22T21:26:21.038Z,1.73
2022-11-22T21:28:48.041Z,3.20
2022-11-22T21:31:14.850Z,2.70
2022-11-22T21:33:42.676Z,4.70
2022-11-22T21:36:10.042Z,3.60
2022-11-22T21:38:38.427Z,2.60
2022-11-22T21:41:32.178Z,2.43
2022-11-22T21:43:56.791Z,2.57
2022-11-22T21:46:24.994Z,3.27
2022-11-22T21:48:51.890Z,2.60
2022-11-22T21:51:18.690Z,2.43
2022-11-22T21:53:45.481Z,2.60
2022-11-22T21:56:12.180Z,2.10
2022-11-22T21:58:38.887Z,2.13
2022-11-22T22:01:10.936Z,2.30
2022-11-22T22:03:40.282Z,2.10
2022-11-22T22:06:07.535Z,1.87
2022-11-22T22:08:34.338Z,2.27
2022-11-22T22:11:03.956Z,2.37
2022-11-22T22:13:31.445Z,1.70
2022-11-22T22:16:04.001Z,2.73
2022-11-22T22:18:32.040Z,1.50
2022-11-22T22:21:07.303Z,2.23
2022-11-22T22:23:35.611Z,1.83
2022-11-22T22:26:04.520Z,1.90
2022-11-22T22:28:33.640Z,1.80
2022-11-22T22:31:21.390Z,1.73
2022-11-22T22:33:53.730Z,1.60
2022-11-22T22:36:21.426Z,1.27
2022-11-22T22:38:48.357Z,1.90
2022-11-22T22:41:15.296Z,1.90
2022-11-22T22:43:43.934Z,1.60
2022-11-22T22:46:15.598Z,1.60
2022-11-22T22:48:42.970Z,1.87
2022-11-22T22:51:18.532Z,1.93
2022-11-22T22:53:45.812Z,2.17
2022-11-22T22:56:14.655Z,1.90
2022-11-22T22:58:41.769Z,2.13
2022-11-22T23:01:14.192Z,1.70
2022-11-22T23:03:41.175Z,2.97
2022-11-22T23:06:10.212Z,1.93
2022-11-22T23:08:38.151Z,1.70
2022-11-22T23:11:06.950Z,1.70
2022-11-22T23:13:39.512Z,2.17
2022-11-22T23:16:08.588Z,1.70
2022-11-22T23:18:40.856Z,1.77
2022-11-22T23:21:10.760Z,2.10
2022-11-22T23:23:37.428Z,1.77
2022-11-22T23:26:11.129Z,1.67
2022-11-22T23:28:38.566Z,1.47
2022-11-22T23:31:11.185Z,2.00
2022-11-22T23:33:37.941Z,1.93
2022-11-22T23:36:06.875Z,2.33
2022-11-22T23:38:33.638Z,2.07
2022-11-22T23:41:00.542Z,2.17
2022-11-22T23:43:28.061Z,1.57
2022-11-22T23:45:54.818Z,2.30
2022-11-22T23:48:21.514Z,2.30
2022-11-22T23:50:48.179Z,1.73
2022-11-22T23:53:14.845Z,1.90
2022-11-22T23:55:41.574Z,1.50
2022-11-22T23:58:08.250Z,1.70
